656  
UXUS97 KREV 151330  
SRGREV  
 
SOARING FORECAST  
NATIONAL WEATHER SERVICE - RENO NV  
700 AM PDT MON JUL 15 2019  
 
THIS SOARING FORECAST IS FOR THE EASTERN SIERRA AND WESTERN NEVADA  
WITH SPECIFIC INDICES FOR THE GREATER RENO AREA.  
 
THIS FORECAST IS PREPARED DAILY BY 700 AM AND IS NOT UPDATED.  
 
FOR CURRENT FLIGHT CONDITIONS...FORECASTS...AND ADVISORIES...ACCESS  
YOUR LOCAL BRIEFING OUTLET OR FLIGHT SERVICE STATION.  
 
*******************************************************************  
FORECASTED LOCAL INDICES FOR RENO: TODAY YESTERDAY  
FORECASTED MAX TEMP AT RENO (DEG F)..... 92 94  
FORECASTED TRIGGER TEMPERATURE (DEG F).. 75 78  
EXCEEDED YESTERDAY BY 955 AM PDT  
FORECASTED MAXIMUM ALTITUDE (FT MSL).... 16900 16600  
FORECASTED SOARING INDEX (FPM).......... 1017 1038  
FORECASTED K-INDEX.........VALID 18Z.... 11 8  
FORECASTED K-INDEX.........VALID 00Z.... 14 9  
FORECASTED LIFTED INDEX....VALID 18Z.... 7 4  
FORECASTED LIFTED INDEX....VALID 00Z.... 5 4  
 
AFTERNOON WINDS ALOFT FORECAST  
MSL (FT) WIND/TEMP  
9000 2615/+15  
10000 2415/+12  
12000 2314/+07  
14000 2316/+02  
16000 2319/-02  
18000 2426/-07  
24000 2534/-19  
30000 2543/-36  
34000 2567/-43  
39000 2579/-52  
 
SLIDE MOUNTAIN DATA:  
DATE TIME TEMP DEWPT RH WIND (MPH)  
(F) (F) | DIR SPEED GUST  
2019-07-15 05:20 49 28 32 | 292 32 40  
2019-07-15 05:00 49 28 32 | 294 33 40  
2019-07-15 04:50 49 28 31 | 295 35 43  
2019-07-15 04:30 49 28 31 | 294 32 39  
 
SIERRA CREST 8700 FT DATA:  
DATE TIME TEMP RH WIND  
DIR SPEED GUST  
2019-07-15 0600 52 28 221 17 20  
2019-07-15 0545 52 28 222 17 21  
2019-07-15 0530 52 26 232 17 20  
2019-07-15 0515 52 26 229 16 21  
 
RENO TAF FORECAST:  
KRNO 151120Z 1512/1612 VRB04KT P6SM SKC  
FM151900 22008KT P6SM FEW090  
FM152100 26014G24KT P6SM FEW090  
FM160200 29016G26KT P6SM FEW090  
FM160500 31011G19KT P6SM SKC  
FM160800 30006KT P6SM SKC  
 
CARSON CITY TAF FORECAST:  
KCXP 151120Z 1512/1612 VRB04KT P6SM SKC  
FM151800 19008KT P6SM FEW080  
FM152000 24013G23KT P6SM FEW080  
FM160100 26011G19KT P6SM FEW080  
FM160300 VRB04KT P6SM SKC  
 
OUTLOOK FOR THE RENO-CARSON CITY-MINDEN AREA:   
TUESDAY
 
SUNNY. HIGHS 87 TO 92. LIGHT WINDS BECOMING NORTHWEST  
AROUND 10 MPH IN THE AFTERNOON.  
 
SUNRISE AND SUNSET  
JULY 15 2019..........SUNRISE 544 AM PDT SUNSET 826 PM PDT  
JULY 16 2019..........SUNRISE 545 AM PDT SUNSET 825 PM PDT  
 
CLICK HERE TO GO TO PREVIOUS BULLETINS.

The Nexlab NV Page
The Nexlab CA Page Main Text Page